• Join FlightAware (Why Join?)
  • Login
  • US Flag 
08:23AM EST


 

Airport Tracker/Info


-or-


 

Live Flight TrackerFlight Track Log ✈ N6198Q ✈ 11-May-2014 ✈ KAPF - KTMB

Flight Track Log - Related Links

Times and Time Zones

All times are in EDT time to prevent confusion due to time zone crossing. See the N6198Q flight status page for this flight to view local times or setup timezone preferences in your user account.

Time Position Orientation Groundspeed Altitude Reporting Facility
EDT Latitude Longitude Course Direction KTS MPH feet Rate Location/Type
05:38PM 26.0408 -81.6419 118° Southeast 92 106 2,500  Level Miami Center
05:39PM 26.0317 -81.6197 115° Southeast 82 94 2,400  Descending Miami Center
05:40PM 26.0211 -81.5981 118° Southeast 77 89 2,500  Climbing Miami Center
05:41PM 26.0128 -81.5756 112° Southeast 77 89 2,400  Descending Miami Center
05:42PM 26.0598 -81.5259 114° Southeast  Level Estimated
05:42PM 26.0069 -81.5528 106° East 75 86 2,500  Level Miami Center
05:43PM 26.0409 -81.4861 118° Southeast  Level FlightAware Approximate
05:43PM 25.9997 -81.5308 110° East 75 86 2,500  Level Miami Center
05:44PM 25.9869 -81.5083 122° Southeast 78 90 2,400 -120 Descending Miami Center
05:45PM 25.9708 -81.4908 136° Southeast 77 89 2,300 60 Descending Miami Center
05:46PM 25.9608 -81.4703 118° Southeast 77 89 2,600 180 Climbing Miami Center
05:47PM 25.9458 -81.4500 129° Southeast 78 90 2,700 60 Climbing Miami Center
05:48PM 25.9400 -81.4247 104° East 81 93 2,800 60 Climbing Miami Center
05:49PM 25.9317 -81.4008 111° Southeast 78 90 2,900  Climbing Miami Center
05:50PM 25.9250 -81.3767 107° East 84 97 2,900  Level Miami Center
05:51PM 25.9158 -81.3522 113° Southeast 81 93 3,000  Climbing Miami Center
05:52PM 25.9125 -81.3275 99° East 81 93 3,000  Level Miami Center
05:53PM 25.9089 -81.3064 101° East 81 93 3,000  Level Miami Center
05:54PM 25.8994 -81.2831 114° Southeast 81 93 3,000  Level Miami Center
05:56PM 25.8772 -81.2336 117° Southeast 81 93 3,000  Level Miami Center
05:57PM 25.8667 -81.2106 117° Southeast 82 94 3,000  Level Miami Center
05:59PM 25.8648 -81.1764 107° East  Level FlightAware Approximate
06:06PM 25.8135 -80.9881 107° East  Level FlightAware Approximate
06:07PM 25.8063 -80.9612 107° East  Level FlightAware Approximate
06:08PM 25.7991 -80.9343 107° East  Level FlightAware Approximate
06:09PM 25.7918 -80.9074 107° East  Level FlightAware Approximate
06:10PM 25.7846 -80.8804 107° East  Level FlightAware Approximate
06:11PM 25.7774 -80.8535 107° East  Level FlightAware Approximate
06:12PM 25.7702 -80.8266 107° East  Level FlightAware Approximate
06:13PM 25.7629 -80.7997 107° East  Level FlightAware Approximate
06:14PM 25.7557 -80.7728 107° East  Level FlightAware Approximate
06:15PM 25.7484 -80.7459 107° East  Level FlightAware Approximate
06:16PM 25.7412 -80.7190 107° East  Level FlightAware Approximate
06:17PM 25.7339 -80.6921 107° East  Level FlightAware Approximate
06:18PM 25.7267 -80.6652 107° East  Level FlightAware Approximate
06:19PM 25.7194 -80.6383 107° East  Level FlightAware Approximate
06:20PM 25.7121 -80.6114 107° East  Level FlightAware Approximate
06:21PM 25.7048 -80.5845 107° East  Level FlightAware Approximate
06:22PM 25.6937 -80.5604 138° Southeast  Level FlightAware Approximate
06:23PM 25.6778 -80.5390 119° Southeast  Level FlightAware Approximate
06:24PM 25.6659 -80.5143 110° East  Level FlightAware Approximate
06:25PM 25.6571 -80.4880 110° East  Level FlightAware Approximate
06:26PM 25.6483 -80.4617 110° East  Level FlightAware Approximate
06:27PM 25.6396 -80.4354 110° East  Level FlightAware Approximate
06:28PM 25.6476 -80.4332 110° East  Level Estimated
06:29PM 25.6476 -80.4332 134° Southeast  Level Estimated
06:30PM 25.6476 -80.4332 134° Southeast  Level Estimated
06:31PM 25.6476 -80.4332 134° Southeast  Level Estimated
06:32PM 25.6476 -80.4332 110° East  Level Estimated
06:33PM 25.6476 -80.4332 134° Southeast  Level Estimated
06:34PM 25.6476 -80.4332 134° Southeast  Level Estimated
06:35PM 25.6476 -80.4332 134° Southeast  Level Estimated
06:36PM 25.6476 -80.4332 110° East  Level Estimated
06:37PM 25.6476 -80.4332 134° Southeast  Level Estimated
06:38PM 25.6476 -80.4332 134° Southeast  Level Estimated
06:39PM 25.6476 -80.4332 134° Southeast  Level Estimated
06:40PM 25.6476 -80.4332 110° East  Level Estimated
06:41PM 25.6476 -80.4332 134° Southeast  Level Estimated
06:42PM 25.6476 -80.4332 134° Southeast  Level Estimated
06:43PM 25.6476 -80.4332 134° Southeast  Level Estimated
06:44PM 25.6476 -80.4332 110° East  Level Estimated
06:45PM 25.6476 -80.4332 134° Southeast  Level Estimated